EAG5501 SKBO-SEQM
Flight info
| Callsign | EAG5501 |
|---|---|
| Flight time | 1h 5m |
| Altitude | 35000 |
| Route | VAPOM4R OREGA Z009 PPN/N0445F240 W48 MER G675 IPI/N0439F230 G675 QIT |
| Aircraft | B738/M-SDE1FGHILORVWXY/HB1 |
Departure
| Time | 2026-05-06 19:58 |
|---|---|
| Airport | El Dorado International Airport (SKBO) |
Arrival
| Time | 2026-05-06 21:03 |
|---|---|
| Airport | Mariscal Sucre International Airport (SEQM) |
| Time | Latitude | Longitude | Altitude | Speed | Heading |
|---|---|---|---|---|---|
| 2026-05-06 19:54 | 4.71246 | -74.16480 | 8373 ft | 0 kts | 38° |
| 2026-05-06 19:55 | 4.71252 | -74.16475 | 8373 ft | 3 kts | 38° |
| 2026-05-06 19:55 | 4.71280 | -74.16454 | 8373 ft | 7 kts | 37° |
| 2026-05-06 19:55 | 4.71335 | -74.16462 | 8373 ft | 11 kts | 317° |
| 2026-05-06 19:56 | 4.71395 | -74.16537 | 8373 ft | 16 kts | 307° |
| 2026-05-06 19:56 | 4.71425 | -74.16648 | 8373 ft | 20 kts | 231° |
| 2026-05-06 19:56 | 4.71318 | -74.16734 | 8373 ft | 20 kts | 216° |
| 2026-05-06 19:56 | 4.71204 | -74.16800 | 8373 ft | 18 kts | 201° |
| 2026-05-06 19:57 | 4.71099 | -74.16871 | 8372 ft | 18 kts | 217° |
| 2026-05-06 19:57 | 4.70995 | -74.16837 | 8371 ft | 21 kts | 128° |
| 2026-05-06 19:57 | 4.70805 | -74.16585 | 8371 ft | 77 kts | 127° |
| 2026-05-06 19:57 | 4.70359 | -74.15996 | 8374 ft | 134 kts | 127° |
| 2026-05-06 19:58 | 4.69694 | -74.15118 | 8387 ft | 180 kts | 127° |
| 2026-05-06 19:58 | 4.68865 | -74.14034 | 8688 ft | 210 kts | 127° |
| 2026-05-06 19:58 | 4.67903 | -74.12918 | 9570 ft | 210 kts | 146° |
| 2026-05-06 19:58 | 4.66540 | -74.12560 | 10362 ft | 210 kts | 185° |
| 2026-05-06 19:59 | 4.65182 | -74.13204 | 10724 ft | 232 kts | 225° |
| 2026-05-06 19:59 | 4.64378 | -74.14628 | 11347 ft | 241 kts | 246° |
| 2026-05-06 19:59 | 4.63701 | -74.16218 | 11822 ft | 256 kts | 243° |
| 2026-05-06 19:59 | 4.62930 | -74.17880 | 12383 ft | 265 kts | 242° |
| 2026-05-06 20:00 | 4.62152 | -74.19535 | 13123 ft | 268 kts | 242° |
| 2026-05-06 20:00 | 4.61441 | -74.21287 | 13696 ft | 280 kts | 254° |
| 2026-05-06 20:00 | 4.61056 | -74.23271 | 14068 ft | 300 kts | 258° |
| 2026-05-06 20:00 | 4.60660 | -74.25393 | 14380 ft | 319 kts | 258° |
| 2026-05-06 20:01 | 4.60119 | -74.27607 | 14672 ft | 335 kts | 245° |
| 2026-05-06 20:01 | 4.59061 | -74.29700 | 15202 ft | 342 kts | 241° |
| 2026-05-06 20:01 | 4.58340 | -74.31123 | 15491 ft | 347 kts | 241° |
| 2026-05-06 20:01 | 4.57245 | -74.33280 | 16170 ft | 349 kts | 241° |
| 2026-05-06 20:02 | 4.56125 | -74.35475 | 16721 ft | 356 kts | 241° |
| 2026-05-06 20:02 | 4.54997 | -74.37684 | 17335 ft | 359 kts | 242° |
| 2026-05-06 20:02 | 4.53849 | -74.39927 | 17944 ft | 363 kts | 242° |
| 2026-05-06 20:02 | 4.52690 | -74.42190 | 18511 ft | 366 kts | 242° |
| 2026-05-06 20:03 | 4.51524 | -74.44468 | 18999 ft | 369 kts | 242° |
| 2026-05-06 20:03 | 4.50348 | -74.46766 | 19549 ft | 371 kts | 242° |
| 2026-05-06 20:03 | 4.49164 | -74.49077 | 20082 ft | 374 kts | 242° |
| 2026-05-06 20:03 | 4.47972 | -74.51405 | 20556 ft | 376 kts | 242° |
| 2026-05-06 20:04 | 4.46774 | -74.53746 | 21085 ft | 379 kts | 242° |
| 2026-05-06 20:04 | 4.45565 | -74.56106 | 21595 ft | 381 kts | 242° |
| 2026-05-06 20:04 | 4.44351 | -74.58478 | 22115 ft | 384 kts | 242° |
| 2026-05-06 20:04 | 4.43132 | -74.60857 | 22607 ft | 387 kts | 242° |
| 2026-05-06 20:05 | 4.41899 | -74.63263 | 23101 ft | 389 kts | 242° |
| 2026-05-06 20:05 | 4.40660 | -74.65684 | 23551 ft | 392 kts | 242° |
| 2026-05-06 20:05 | 4.39406 | -74.68128 | 23898 ft | 396 kts | 242° |
| 2026-05-06 20:05 | 4.38155 | -74.70555 | 24301 ft | 398 kts | 242° |
| 2026-05-06 20:06 | 4.36882 | -74.73028 | 24689 ft | 401 kts | 242° |
| 2026-05-06 20:06 | 4.35601 | -74.75514 | 25091 ft | 403 kts | 242° |
| 2026-05-06 20:06 | 4.34313 | -74.78016 | 25486 ft | 405 kts | 242° |
| 2026-05-06 20:06 | 4.33017 | -74.80531 | 25877 ft | 407 kts | 242° |
| 2026-05-06 20:07 | 4.31717 | -74.83053 | 26265 ft | 409 kts | 242° |
| 2026-05-06 20:07 | 4.30409 | -74.85593 | 26619 ft | 412 kts | 242° |
| 2026-05-06 20:07 | 4.29091 | -74.88152 | 26974 ft | 414 kts | 242° |
| 2026-05-06 20:07 | 4.27767 | -74.90722 | 27345 ft | 416 kts | 242° |
| 2026-05-06 20:08 | 4.26433 | -74.93311 | 27704 ft | 419 kts | 242° |
| 2026-05-06 20:08 | 4.25093 | -74.95912 | 28075 ft | 421 kts | 242° |
| 2026-05-06 20:08 | 4.23744 | -74.98529 | 28434 ft | 424 kts | 242° |
| 2026-05-06 20:08 | 4.22389 | -75.01158 | 28860 ft | 426 kts | 242° |
| 2026-05-06 20:09 | 4.21030 | -75.03789 | 29148 ft | 428 kts | 241° |
| 2026-05-06 20:09 | 4.19379 | -75.06266 | 29488 ft | 428 kts | 231° |
| 2026-05-06 20:09 | 4.17574 | -75.08642 | 29855 ft | 430 kts | 233° |
| 2026-05-06 20:09 | 4.15777 | -75.11048 | 30157 ft | 432 kts | 232° |
| 2026-05-06 20:10 | 4.13971 | -75.13462 | 30447 ft | 433 kts | 232° |
| 2026-05-06 20:10 | 4.12164 | -75.15878 | 30726 ft | 435 kts | 232° |
| 2026-05-06 20:10 | 4.10348 | -75.18305 | 31004 ft | 436 kts | 232° |
| 2026-05-06 20:10 | 4.08547 | -75.20710 | 31274 ft | 437 kts | 232° |
| 2026-05-06 20:11 | 4.06719 | -75.23153 | 31601 ft | 439 kts | 232° |
| 2026-05-06 20:11 | 4.04894 | -75.25590 | 31874 ft | 440 kts | 232° |
| 2026-05-06 20:11 | 4.03052 | -75.28051 | 32110 ft | 443 kts | 232° |
| 2026-05-06 20:11 | 4.01199 | -75.30524 | 32376 ft | 444 kts | 232° |
| 2026-05-06 20:12 | 3.99344 | -75.33002 | 32627 ft | 446 kts | 232° |
| 2026-05-06 20:12 | 3.97476 | -75.35497 | 32918 ft | 447 kts | 232° |
| 2026-05-06 20:12 | 3.95607 | -75.37993 | 33184 ft | 449 kts | 232° |
| 2026-05-06 20:12 | 3.93725 | -75.40504 | 33432 ft | 451 kts | 232° |
| 2026-05-06 20:13 | 3.91842 | -75.43018 | 33691 ft | 452 kts | 232° |
| 2026-05-06 20:13 | 3.89959 | -75.45530 | 33965 ft | 453 kts | 231° |
| 2026-05-06 20:13 | 3.88065 | -75.48059 | 34181 ft | 454 kts | 231° |
| 2026-05-06 20:13 | 3.85918 | -75.50355 | 34436 ft | 451 kts | 216° |
| 2026-05-06 20:14 | 3.83449 | -75.52279 | 34647 ft | 452 kts | 217° |
| 2026-05-06 20:14 | 3.80994 | -75.54261 | 34810 ft | 454 kts | 217° |
| 2026-05-06 20:14 | 3.78524 | -75.56231 | 35002 ft | 455 kts | 217° |
| 2026-05-06 20:14 | 3.76028 | -75.58206 | 35050 ft | 459 kts | 217° |
| 2026-05-06 20:15 | 3.70954 | -75.62208 | 35031 ft | 470 kts | 217° |
| 2026-05-06 20:15 | 3.65774 | -75.66291 | 35076 ft | 477 kts | 217° |
| 2026-05-06 20:16 | 3.60584 | -75.70382 | 35078 ft | 478 kts | 216° |
| 2026-05-06 20:16 | 3.55359 | -75.74499 | 35081 ft | 478 kts | 217° |
| 2026-05-06 20:17 | 3.50149 | -75.78604 | 35118 ft | 477 kts | 216° |
| 2026-05-06 20:17 | 3.44939 | -75.82708 | 35121 ft | 476 kts | 217° |
| 2026-05-06 20:18 | 3.39731 | -75.86809 | 35097 ft | 476 kts | 216° |
| 2026-05-06 20:18 | 3.34522 | -75.90911 | 35118 ft | 477 kts | 216° |
| 2026-05-06 20:19 | 3.29328 | -75.95002 | 35117 ft | 476 kts | 216° |
| 2026-05-06 20:19 | 3.24123 | -75.99100 | 35129 ft | 476 kts | 216° |
| 2026-05-06 20:20 | 3.18922 | -76.03194 | 35136 ft | 476 kts | 217° |
| 2026-05-06 20:20 | 3.13719 | -76.07288 | 35094 ft | 476 kts | 217° |
| 2026-05-06 20:21 | 3.08515 | -76.11384 | 35102 ft | 476 kts | 217° |
| 2026-05-06 20:21 | 3.03309 | -76.15480 | 35118 ft | 476 kts | 217° |
| 2026-05-06 20:22 | 2.98134 | -76.19534 | 35114 ft | 475 kts | 217° |
| 2026-05-06 20:22 | 2.92914 | -76.23570 | 35078 ft | 473 kts | 216° |
| 2026-05-06 20:23 | 2.87717 | -76.27594 | 35080 ft | 472 kts | 217° |
| 2026-05-06 20:23 | 2.82523 | -76.31614 | 35080 ft | 472 kts | 217° |
| 2026-05-06 20:24 | 2.77324 | -76.35637 | 35117 ft | 472 kts | 216° |
| 2026-05-06 20:24 | 2.72141 | -76.39648 | 35073 ft | 472 kts | 216° |
| 2026-05-06 20:25 | 2.66937 | -76.43677 | 35127 ft | 473 kts | 216° |
| 2026-05-06 20:25 | 2.61807 | -76.47778 | 35134 ft | 472 kts | 218° |
| 2026-05-06 20:26 | 2.56698 | -76.51900 | 35142 ft | 470 kts | 218° |
| 2026-05-06 20:26 | 2.51633 | -76.55980 | 35136 ft | 472 kts | 217° |
| 2026-05-06 20:27 | 2.46521 | -76.60099 | 35156 ft | 472 kts | 217° |
| 2026-05-06 20:27 | 2.41428 | -76.64243 | 35157 ft | 472 kts | 218° |
| 2026-05-06 20:28 | 2.36333 | -76.68391 | 35146 ft | 472 kts | 217° |
| 2026-05-06 20:28 | 2.31249 | -76.72530 | 35122 ft | 472 kts | 218° |
| 2026-05-06 20:29 | 2.26156 | -76.76677 | 35096 ft | 472 kts | 218° |
| 2026-05-06 20:29 | 2.21067 | -76.80820 | 35054 ft | 470 kts | 218° |
| 2026-05-06 20:30 | 2.13551 | -76.86936 | 35030 ft | 463 kts | 218° |
| 2026-05-06 20:31 | 2.08505 | -76.91043 | 35029 ft | 470 kts | 218° |
| 2026-05-06 20:31 | 2.03424 | -76.95178 | 35000 ft | 471 kts | 218° |
| 2026-05-06 20:32 | 1.98343 | -76.99312 | 34997 ft | 470 kts | 218° |
| 2026-05-06 20:32 | 1.93307 | -77.03409 | 35027 ft | 470 kts | 218° |
| 2026-05-06 20:33 | 1.88232 | -77.07538 | 35025 ft | 471 kts | 218° |
| 2026-05-06 20:33 | 1.83158 | -77.11666 | 34986 ft | 469 kts | 218° |
| 2026-05-06 20:34 | 1.77829 | -77.15364 | 35004 ft | 466 kts | 201° |
| 2026-05-06 20:34 | 1.71756 | -77.17625 | 35008 ft | 467 kts | 199° |
| 2026-05-06 20:35 | 1.65641 | -77.19825 | 35012 ft | 467 kts | 199° |
| 2026-05-06 20:35 | 1.59513 | -77.21997 | 35059 ft | 467 kts | 199° |
| 2026-05-06 20:36 | 1.53431 | -77.24151 | 35018 ft | 468 kts | 199° |
| 2026-05-06 20:36 | 1.47294 | -77.26322 | 35072 ft | 467 kts | 199° |
| 2026-05-06 20:37 | 1.41187 | -77.28499 | 35064 ft | 466 kts | 201° |
| 2026-05-06 20:37 | 1.38367 | -77.30072 | 35148 ft | 465 kts | 215° |
| 2026-05-06 20:37 | 1.35728 | -77.31950 | 35167 ft | 468 kts | 213° |
| 2026-05-06 20:38 | 1.30460 | -77.35668 | 35154 ft | 467 kts | 214° |
| 2026-05-06 20:38 | 1.25170 | -77.39450 | 35136 ft | 467 kts | 214° |
| 2026-05-06 20:39 | 1.19884 | -77.43232 | 35124 ft | 468 kts | 214° |
| 2026-05-06 20:39 | 1.14593 | -77.47016 | 35140 ft | 468 kts | 214° |
| 2026-05-06 20:40 | 1.09353 | -77.50764 | 35224 ft | 466 kts | 215° |
| 2026-05-06 20:40 | 1.04095 | -77.54524 | 35305 ft | 464 kts | 214° |
| 2026-05-06 20:41 | 0.98837 | -77.58284 | 35390 ft | 465 kts | 215° |
| 2026-05-06 20:41 | 0.93583 | -77.62043 | 35456 ft | 465 kts | 214° |
| 2026-05-06 20:42 | 0.88384 | -77.65760 | 35451 ft | 463 kts | 214° |
| 2026-05-06 20:42 | 0.83477 | -77.69884 | 35188 ft | 455 kts | 222° |
| 2026-05-06 20:42 | 0.81143 | -77.72038 | 34241 ft | 462 kts | 221° |
| 2026-05-06 20:43 | 0.78751 | -77.74258 | 33037 ft | 474 kts | 221° |
| 2026-05-06 20:43 | 0.76324 | -77.76516 | 32178 ft | 478 kts | 222° |
| 2026-05-06 20:43 | 0.73890 | -77.78784 | 31463 ft | 478 kts | 220° |
| 2026-05-06 20:43 | 0.71464 | -77.81041 | 30674 ft | 478 kts | 220° |
| 2026-05-06 20:44 | 0.69008 | -77.83325 | 29339 ft | 485 kts | 221° |
| 2026-05-06 20:44 | 0.66559 | -77.85604 | 28278 ft | 491 kts | 220° |
| 2026-05-06 20:44 | 0.64056 | -77.87933 | 27324 ft | 493 kts | 221° |
| 2026-05-06 20:44 | 0.61540 | -77.90276 | 26423 ft | 495 kts | 221° |
| 2026-05-06 20:45 | 0.59019 | -77.92623 | 25620 ft | 495 kts | 220° |
| 2026-05-06 20:45 | 0.56513 | -77.94958 | 24899 ft | 491 kts | 221° |
| 2026-05-06 20:45 | 0.54008 | -77.97290 | 24137 ft | 493 kts | 221° |
| 2026-05-06 20:45 | 0.51514 | -77.99612 | 23272 ft | 492 kts | 221° |
| 2026-05-06 20:46 | 0.49060 | -78.01991 | 22372 ft | 492 kts | 227° |
| 2026-05-06 20:46 | 0.47148 | -78.04781 | 21523 ft | 495 kts | 242° |
| 2026-05-06 20:46 | 0.45862 | -78.07942 | 20994 ft | 487 kts | 249° |
| 2026-05-06 20:46 | 0.44714 | -78.11098 | 20481 ft | 480 kts | 249° |
| 2026-05-06 20:47 | 0.43595 | -78.14255 | 19544 ft | 484 kts | 250° |
| 2026-05-06 20:47 | 0.42496 | -78.17410 | 18978 ft | 478 kts | 250° |
| 2026-05-06 20:47 | 0.41427 | -78.20509 | 18450 ft | 471 kts | 250° |
| 2026-05-06 20:47 | 0.40369 | -78.23586 | 17817 ft | 462 kts | 250° |
| 2026-05-06 20:48 | 0.39339 | -78.26584 | 16829 ft | 452 kts | 249° |
| 2026-05-06 20:48 | 0.38385 | -78.29358 | 17363 ft | 407 kts | 249° |
| 2026-05-06 20:48 | 0.37484 | -78.31975 | 17169 ft | 388 kts | 249° |
| 2026-05-06 20:48 | 0.36627 | -78.34464 | 16957 ft | 371 kts | 250° |
| 2026-05-06 20:49 | 0.35805 | -78.36846 | 16795 ft | 354 kts | 250° |
| 2026-05-06 20:49 | 0.35026 | -78.39111 | 16632 ft | 336 kts | 250° |
| 2026-05-06 20:49 | 0.34285 | -78.41266 | 16454 ft | 317 kts | 250° |
| 2026-05-06 20:49 | 0.33585 | -78.43302 | 16337 ft | 306 kts | 250° |
| 2026-05-06 20:50 | 0.32905 | -78.45279 | 16175 ft | 298 kts | 250° |
| 2026-05-06 20:50 | 0.32192 | -78.47211 | 15928 ft | 298 kts | 242° |
| 2026-05-06 20:50 | 0.30997 | -78.48861 | 15597 ft | 299 kts | 220° |
| 2026-05-06 20:50 | 0.29269 | -78.49968 | 15371 ft | 295 kts | 199° |
| 2026-05-06 20:51 | 0.27274 | -78.50405 | 15046 ft | 294 kts | 178° |
| 2026-05-06 20:51 | 0.25320 | -78.50054 | 14386 ft | 283 kts | 132° |
| 2026-05-06 20:51 | 0.24451 | -78.48160 | 11856 ft | 345 kts | 113° |
| 2026-05-06 20:51 | 0.23317 | -78.46261 | 12873 ft | 285 kts | 134° |
| 2026-05-06 20:52 | 0.21781 | -78.45190 | 13725 ft | 267 kts | 158° |
| 2026-05-06 20:52 | 0.19966 | -78.44929 | 14233 ft | 267 kts | 185° |
| 2026-05-06 20:52 | 0.18201 | -78.45449 | 14781 ft | 271 kts | 200° |
| 2026-05-06 20:52 | 0.16441 | -78.46175 | 15322 ft | 276 kts | 200° |
| 2026-05-06 20:53 | 0.14642 | -78.46972 | 15778 ft | 291 kts | 208° |
| 2026-05-06 20:53 | 0.13102 | -78.48342 | 16228 ft | 303 kts | 234° |
| 2026-05-06 20:53 | 0.12235 | -78.50272 | 16695 ft | 312 kts | 257° |
| 2026-05-06 20:53 | 0.12114 | -78.52452 | 16404 ft | 316 kts | 281° |
| 2026-05-06 20:54 | 0.12811 | -78.54508 | 16177 ft | 314 kts | 296° |
| 2026-05-06 20:54 | 0.13749 | -78.56443 | 15862 ft | 313 kts | 297° |
| 2026-05-06 20:54 | 0.14906 | -78.58277 | 15440 ft | 313 kts | 316° |
| 2026-05-06 20:54 | 0.16656 | -78.59519 | 15051 ft | 308 kts | 340° |
| 2026-05-06 20:55 | 0.18736 | -78.59957 | 14526 ft | 308 kts | 4° |
| 2026-05-06 20:55 | 0.20826 | -78.59512 | 13975 ft | 310 kts | 27° |
| 2026-05-06 20:55 | 0.22558 | -78.58254 | 13393 ft | 310 kts | 51° |
| 2026-05-06 20:55 | 0.23659 | -78.56411 | 12831 ft | 311 kts | 71° |
| 2026-05-06 20:56 | 0.24014 | -78.54281 | 12301 ft | 314 kts | 92° |
| 2026-05-06 20:56 | 0.23549 | -78.52152 | 11826 ft | 317 kts | 114° |
| 2026-05-06 20:56 | 0.22296 | -78.50358 | 11523 ft | 313 kts | 136° |
| 2026-05-06 20:56 | 0.20630 | -78.49133 | 11498 ft | 290 kts | 143° |
| 2026-05-06 20:57 | 0.19044 | -78.48006 | 11535 ft | 271 kts | 142° |
| 2026-05-06 20:57 | 0.17562 | -78.46941 | 11490 ft | 255 kts | 142° |
| 2026-05-06 20:57 | 0.16159 | -78.45925 | 11512 ft | 243 kts | 142° |
| 2026-05-06 20:57 | 0.14829 | -78.44953 | 11543 ft | 231 kts | 141° |
| 2026-05-06 20:58 | 0.13569 | -78.44028 | 11462 ft | 218 kts | 141° |
| 2026-05-06 20:58 | 0.12383 | -78.43153 | 11470 ft | 207 kts | 141° |
| 2026-05-06 20:58 | 0.11253 | -78.42315 | 11460 ft | 204 kts | 140° |
| 2026-05-06 20:58 | 0.10124 | -78.41468 | 11376 ft | 203 kts | 141° |
| 2026-05-06 20:59 | 0.08994 | -78.40618 | 11303 ft | 204 kts | 141° |
| 2026-05-06 20:59 | 0.07864 | -78.39763 | 11248 ft | 205 kts | 141° |
| 2026-05-06 20:59 | 0.06672 | -78.38971 | 11214 ft | 208 kts | 148° |
| 2026-05-06 20:59 | 0.05415 | -78.38236 | 11091 ft | 209 kts | 147° |
| 2026-05-06 21:00 | 0.04171 | -78.37500 | 10873 ft | 208 kts | 147° |
| 2026-05-06 21:00 | 0.02926 | -78.36764 | 10622 ft | 206 kts | 147° |
| 2026-05-06 21:00 | 0.01640 | -78.36154 | 10382 ft | 206 kts | 168° |
| 2026-05-06 21:00 | 0.00255 | -78.36054 | 10336 ft | 201 kts | 173° |
| 2026-05-06 21:01 | -0.01118 | -78.35923 | 10043 ft | 190 kts | 174° |
| 2026-05-06 21:01 | -0.02363 | -78.35870 | 9778 ft | 175 kts | 176° |
| 2026-05-06 21:01 | -0.03558 | -78.35820 | 9553 ft | 170 kts | 175° |
| 2026-05-06 21:01 | -0.04735 | -78.35778 | 9182 ft | 168 kts | 175° |
| 2026-05-06 21:02 | -0.05888 | -78.35770 | 8802 ft | 164 kts | 175° |
| 2026-05-06 21:02 | -0.07014 | -78.35675 | 8390 ft | 160 kts | 174° |
| 2026-05-06 21:02 | -0.08127 | -78.35633 | 8168 ft | 157 kts | 178° |
| 2026-05-06 21:02 | -0.09210 | -78.35581 | 8046 ft | 152 kts | 176° |
| 2026-05-06 21:03 | -0.10267 | -78.35531 | 7874 ft | 152 kts | 178° |
| 2026-05-06 21:03 | -0.11270 | -78.35492 | 7810 ft | 132 kts | 178° |
| 2026-05-06 21:03 | -0.11984 | -78.35462 | 7828 ft | 81 kts | 178° |
| 2026-05-06 21:03 | -0.12349 | -78.35447 | 7844 ft | 47 kts | 178° |
| 2026-05-06 21:04 | -0.12482 | -78.35498 | 7839 ft | 14 kts | 286° |
| 2026-05-06 21:04 | -0.12403 | -78.35566 | 7842 ft | 16 kts | 329° |
| 2026-05-06 21:04 | -0.12355 | -78.35652 | 7844 ft | 15 kts | 264° |
| 2026-05-06 21:04 | -0.12363 | -78.35758 | 7837 ft | 15 kts | 268° |
| 2026-05-06 21:05 | -0.12374 | -78.35864 | 7839 ft | 15 kts | 267° |
| 2026-05-06 21:05 | -0.12376 | -78.35910 | 7841 ft | 0 kts | 268° |